< < Back
Terminal Aerodrome Forecast


Current Version              Previous Versions:   1  2  3  4  5  6  7  8  9  

Terminal Aerodrome Forecast

815
FTUS42 KGSP 311400 AAA
TAFCLT
TAF AMD
KCLT 311453Z 3115/0112 24005KT P6SM FEW013 FEW030 BKN120
      TEMPO 3115/3116 BKN013 BKN030
     FM311700 22007KT P6SM BKN120
     FM010300 00000KT P6SM BKN250=

Latest METAR

646
SAUS70 KWBC 010800 RRG
MTRCLT
METAR KCLT 010752Z 20003KT 10SM OVC250 23/21 A3010 RMK AO2 SLP183
T02280206


USA.gov is the U.S. government's official web portal to all federal, state and local government web resources and services.